Time;durP1;ratioP1;P1;durP2;ratioP2;P2;SDS_P1;SDS_P2;PMS_P1;PMS_P2;Temp;Humidity;BMP_temperature;BMP_pressure;BME280_temperature;BME280_humidity;BME280_pressure;Samples;Min_cycle;Max_cycle;Signal;HPM_P1;HPM_P2
2022/07/20 00:00:35;;;;;;;13.82;7.88;;;22.80;91.60;;;;;;5067122;28;20063;-69
2022/07/20 00:03:09;;;;;;;9.77;7.30;;;22.80;91.60;;;;;;5063793;28;20033;-69
2022/07/20 00:05:36;;;;;;;11.00;7.10;;;22.70;91.50;;;;;;5065516;28;20037;-69
2022/07/20 00:08:02;;;;;;;10.60;7.60;;;22.70;91.50;;;;;;5078560;28;20029;-70
2022/07/20 00:13:12;;;;;;;12.18;7.03;;;22.60;91.50;;;;;;5062415;28;20093;-70
2022/07/20 00:15:38;;;;;;;10.25;7.40;;;22.60;91.50;;;;;;5064569;28;20041;-68
2022/07/20 00:18:04;;;;;;;10.60;7.03;;;22.60;91.60;;;;;;5060296;28;20060;-68
2022/07/20 00:20:30;;;;;;;14.82;7.18;;;22.50;91.80;;;;;;5067249;28;20048;-69
2022/07/20 00:22:58;;;;;;;9.82;7.18;;;22.50;91.60;;;;;;5068454;28;20033;-68
2022/07/20 00:25:25;;;;;;;17.98;7.40;;;22.50;91.50;;;;;;5063381;28;20048;-70
2022/07/20 00:27:51;;;;;;;16.33;7.30;;;22.40;91.60;;;;;;5062900;28;20040;-69
2022/07/20 00:30:17;;;;;;;12.10;7.63;;;22.40;91.70;;;;;;5057646;28;20487;-70
2022/07/20 00:32:43;;;;;;;10.40;7.45;;;22.40;91.60;;;;;;5055663;28;20041;-70
2022/07/20 00:35:11;;;;;;;9.93;7.18;;;22.30;91.60;;;;;;5066440;28;20123;-69
2022/07/20 00:37:40;;;;;;;11.45;6.88;;;22.30;91.80;;;;;;5062652;28;20063;-68
2022/07/20 00:40:07;;;;;;;10.60;7.18;;;22.30;91.80;;;;;;5073449;28;20044;-69
2022/07/20 00:42:34;;;;;;;13.93;7.68;;;22.30;91.70;;;;;;5062852;28;20075;-70
2022/07/20 00:45:00;;;;;;;11.65;7.18;;;22.20;91.70;;;;;;5064332;28;20037;-69
2022/07/20 00:47:26;;;;;;;10.50;7.25;;;22.20;91.70;;;;;;5056879;28;20033;-70
2022/07/20 00:49:51;;;;;;;11.50;7.50;;;22.20;91.80;;;;;;5062770;28;20440;-68
2022/07/20 00:52:17;;;;;;;12.65;7.82;;;22.20;91.70;;;;;;5070878;28;20036;-69
2022/07/20 00:54:45;;;;;;;14.93;7.10;;;22.10;91.60;;;;;;5059914;28;20387;-69
2022/07/20 00:57:12;;;;;;;12.63;7.60;;;22.10;91.50;;;;;;5067615;28;20494;-68
2022/07/20 00:59:37;;;;;;;10.85;7.28;;;22.10;91.50;;;;;;5066778;28;20032;-69
2022/07/20 01:02:03;;;;;;;13.18;7.20;;;22.10;91.60;;;;;;5059211;28;20063;-69
2022/07/20 01:04:29;;;;;;;10.80;7.20;;;22.10;91.60;;;;;;5056548;28;20038;-70
2022/07/20 01:06:55;;;;;;;15.40;8.45;;;22.00;91.40;;;;;;5058439;28;20064;-70
2022/07/20 01:09:21;;;;;;;11.85;7.40;;;22.00;91.50;;;;;;5061313;28;20039;-70
2022/07/20 01:11:47;;;;;;;13.48;7.60;;;22.00;91.50;;;;;;5059965;28;20462;-70
2022/07/20 01:14:12;;;;;;;8.63;6.82;;;22.00;91.90;;;;;;5059307;28;20128;-69
2022/07/20 01:16:38;;;;;;;10.25;7.72;;;22.00;92.30;;;;;;5074820;28;20048;-68
2022/07/20 01:19:06;;;;;;;10.27;6.95;;;21.90;92.20;;;;;;5058469;28;20049;-69
2022/07/20 01:21:32;;;;;;;13.07;7.47;;;21.80;92.10;;;;;;5055153;28;20037;-70
2022/07/20 01:23:57;;;;;;;10.52;7.43;;;21.80;92.00;;;;;;5055978;28;20028;-70
2022/07/20 01:26:23;;;;;;;10.48;7.00;;;21.80;91.80;;;;;;5059953;28;20117;-70
2022/07/20 01:28:49;;;;;;;12.10;7.38;;;21.80;91.80;;;;;;5059350;28;20028;-70
2022/07/20 01:31:15;;;;;;;13.13;7.43;;;21.80;91.90;;;;;;5040239;28;20036;-70
2022/07/20 01:33:41;;;;;;;10.98;6.95;;;21.70;91.90;;;;;;5059172;28;20117;-70
2022/07/20 01:36:07;;;;;;;12.10;7.25;;;21.80;91.90;;;;;;5054335;28;20407;-70
2022/07/20 01:38:32;;;;;;;10.68;7.45;;;21.70;91.80;;;;;;5055194;28;20036;-70
2022/07/20 01:40:58;;;;;;;10.02;7.25;;;21.60;92.10;;;;;;5058030;28;20032;-69
2022/07/20 01:43:24;;;;;;;13.88;8.13;;;21.60;92.70;;;;;;5061000;28;20548;-70
2022/07/20 01:45:49;;;;;;;9.98;7.50;;;21.60;93.20;;;;;;5059468;28;20044;-69
2022/07/20 01:48:15;;;;;;;12.52;7.40;;;21.50;93.60;;;;;;5065810;28;20036;-69
2022/07/20 01:50:40;;;;;;;11.55;7.63;;;21.50;93.60;;;;;;5052516;28;20045;-69
2022/07/20 01:53:07;;;;;;;12.02;7.82;;;21.40;93.60;;;;;;5064149;28;20040;-70
2022/07/20 01:55:33;;;;;;;9.88;7.82;;;21.40;93.70;;;;;;5063745;28;20044;-69
2022/07/20 01:58:00;;;;;;;17.30;7.80;;;21.40;93.70;;;;;;5062944;28;20081;-69
2022/07/20 02:00:26;;;;;;;12.70;7.97;;;21.40;93.60;;;;;;5065662;28;20040;-70
2022/07/20 02:02:52;;;;;;;12.90;7.90;;;21.30;93.60;;;;;;5055554;28;20032;-69
2022/07/20 02:05:18;;;;;;;15.70;7.57;;;21.30;93.80;;;;;;5055013;28;20409;-70
2022/07/20 02:07:45;;;;;;;12.95;8.20;;;21.30;94.40;;;;;;5055938;28;20040;-70
2022/07/20 02:10:13;;;;;;;11.88;7.32;;;21.30;94.50;;;;;;5057220;28;20044;-69
2022/07/20 02:12:39;;;;;;;14.00;8.43;;;21.20;94.20;;;;;;5059649;28;20056;-69
2022/07/20 02:15:07;;;;;;;10.50;7.53;;;21.20;94.20;;;;;;5076929;28;20040;-69
2022/07/20 02:17:32;;;;;;;11.07;8.10;;;21.20;94.60;;;;;;5057968;28;20063;-70
2022/07/20 02:19:58;;;;;;;11.18;8.25;;;21.10;94.50;;;;;;5060424;28;20033;-69
2022/07/20 02:22:23;;;;;;;8.85;7.30;;;21.10;94.60;;;;;;5055792;28;20087;-70
2022/07/20 02:24:49;;;;;;;10.60;7.97;;;21.10;94.90;;;;;;5057614;28;20037;-70
2022/07/20 02:27:15;;;;;;;15.38;8.00;;;21.10;95.60;;;;;;5057029;28;20494;-69
2022/07/20 02:29:40;;;;;;;13.02;7.78;;;21.00;95.90;;;;;;5053140;28;20387;-69
2022/07/20 02:32:06;;;;;;;10.65;8.32;;;21.00;98.50;;;;;;5062522;28;20052;-69
2022/07/20 02:34:34;;;;;;;10.82;8.85;;;20.80;99.90;;;;;;5053942;28;20126;-69
2022/07/20 02:36:59;;;;;;;11.07;8.00;;;20.70;99.90;;;;;;5060537;28;20044;-70
2022/07/20 02:39:25;;;;;;;11.07;8.13;;;20.60;99.90;;;;;;5061227;28;20135;-70
2022/07/20 02:41:51;;;;;;;14.05;7.90;;;20.60;99.90;;;;;;5060780;28;20041;-69
2022/07/20 02:44:16;;;;;;;13.27;8.73;;;20.60;99.90;;;;;;5057271;28;20037;-69
2022/07/20 02:46:42;;;;;;;17.60;8.73;;;20.50;99.90;;;;;;5058526;28;20070;-69
2022/07/20 02:49:08;;;;;;;14.50;8.20;;;20.50;99.90;;;;;;5065107;28;20045;-69
2022/07/20 02:51:33;;;;;;;13.32;9.02;;;20.60;99.90;;;;;;5080553;28;20099;-69
2022/07/20 02:53:59;;;;;;;12.73;9.20;;;20.50;99.90;;;;;;5066007;28;20128;-70
2022/07/20 02:56:25;;;;;;;13.50;9.68;;;20.50;99.90;;;;;;5066093;28;20115;-70
2022/07/20 02:58:50;;;;;;;16.02;10.10;;;20.50;99.50;;;;;;5064667;28;20071;-69
2022/07/20 03:01:16;;;;;;;14.00;9.30;;;20.50;99.00;;;;;;5059185;28;20041;-70
2022/07/20 03:03:42;;;;;;;16.23;9.27;;;20.40;98.90;;;;;;5062340;28;20449;-69
2022/07/20 03:06:08;;;;;;;13.68;8.73;;;20.40;99.40;;;;;;5060030;28;20049;-70
2022/07/20 03:08:34;;;;;;;12.63;8.38;;;20.30;99.60;;;;;;5080840;28;20507;-69
2022/07/20 03:11:00;;;;;;;12.30;8.20;;;20.30;99.70;;;;;;5041206;28;20047;-70
2022/07/20 03:13:26;;;;;;;15.68;8.52;;;20.30;99.90;;;;;;5045275;28;20040;-70
2022/07/20 03:15:52;;;;;;;14.07;8.57;;;20.20;99.70;;;;;;5060801;28;20041;-70
2022/07/20 03:18:18;;;;;;;9.60;8.55;;;20.20;99.60;;;;;;5060937;28;20049;-69
2022/07/20 03:20:44;;;;;;;13.77;8.57;;;20.20;99.50;;;;;;5062933;28;20055;-70
2022/07/20 03:23:10;;;;;;;16.60;9.00;;;20.20;99.50;;;;;;5064987;28;20479;-70
2022/07/20 03:25:35;;;;;;;12.15;8.25;;;20.10;99.30;;;;;;5063616;28;20036;-69
2022/07/20 03:28:01;;;;;;;11.32;7.88;;;20.20;99.20;;;;;;5044917;28;20043;-69
2022/07/20 03:30:28;;;;;;;13.15;8.90;;;20.10;99.50;;;;;;5061818;28;20093;-70
2022/07/20 03:32:54;;;;;;;12.30;7.97;;;20.10;99.60;;;;;;5064719;28;20090;-70
2022/07/20 03:35:20;;;;;;;13.07;8.70;;;20.10;99.30;;;;;;5065493;28;20477;-69
2022/07/20 03:37:46;;;;;;;12.35;8.65;;;20.10;99.50;;;;;;5067505;28;20098;-69
2022/07/20 03:40:12;;;;;;;13.07;8.85;;;20.10;99.90;;;;;;5069380;28;20075;-70
2022/07/20 03:42:37;;;;;;;16.90;9.02;;;20.00;99.90;;;;;;5060400;28;20059;-70
2022/07/20 03:45:04;;;;;;;15.30;8.88;;;20.00;99.90;;;;;;5055360;28;20075;-69
2022/07/20 03:47:29;;;;;;;11.88;8.90;;;20.00;99.90;;;;;;5080051;28;20052;-70
2022/07/20 03:49:55;;;;;;;15.10;8.80;;;19.90;99.90;;;;;;5066742;28;20468;-69
2022/07/20 03:52:21;;;;;;;13.43;8.70;;;20.00;99.90;;;;;;5061520;28;20040;-69
2022/07/20 03:54:47;;;;;;;14.65;8.65;;;20.00;99.90;;;;;;5066886;28;20040;-69
2022/07/20 03:57:13;;;;;;;12.00;8.98;;;19.90;99.90;;;;;;5063618;28;20120;-69
2022/07/20 03:59:38;;;;;;;11.88;8.85;;;19.90;99.90;;;;;;5069694;28;20064;-68
2022/07/20 04:02:05;;;;;;;13.80;10.15;;;19.90;99.90;;;;;;5070427;28;20576;-69
2022/07/20 04:04:31;;;;;;;12.48;9.98;;;19.80;99.90;;;;;;5057367;28;20067;-70
2022/07/20 04:06:57;;;;;;;14.13;9.07;;;19.70;99.90;;;;;;5075839;28;20119;-71
2022/07/20 04:12:08;;;;;;;13.55;9.02;;;19.70;99.90;;;;;;5059745;28;20044;-70
2022/07/20 04:14:34;;;;;;;15.60;9.82;;;19.70;99.90;;;;;;5060725;28;20060;-70
2022/07/20 04:16:59;;;;;;;14.10;8.88;;;19.70;99.90;;;;;;5059500;28;20098;-69
2022/07/20 04:19:25;;;;;;;15.23;9.45;;;19.70;99.90;;;;;;5057493;28;20037;-70
2022/07/20 04:21:55;;;;;;;14.50;9.23;;;19.70;99.90;;;;;;5076122;28;20090;-70
2022/07/20 04:24:21;;;;;;;12.55;9.15;;;19.70;99.90;;;;;;5057278;28;20056;-69
2022/07/20 04:26:46;;;;;;;12.73;9.40;;;19.80;99.90;;;;;;5061348;28;20083;-70
2022/07/20 04:29:12;;;;;;;16.45;9.13;;;19.70;99.90;;;;;;5056418;28;20060;-70
2022/07/20 04:31:37;;;;;;;15.32;9.52;;;19.80;99.90;;;;;;5060655;28;20127;-70
2022/07/20 04:34:03;;;;;;;14.88;8.77;;;19.80;99.90;;;;;;5048824;28;20041;-71
2022/07/20 04:36:28;;;;;;;14.43;9.65;;;19.90;99.90;;;;;;5067535;28;20120;-70
2022/07/20 04:38:54;;;;;;;15.38;10.10;;;19.90;99.90;;;;;;5057584;28;20045;-70
2022/07/20 04:41:19;;;;;;;14.93;9.68;;;19.80;99.90;;;;;;5055492;28;20539;-70
2022/07/20 04:43:45;;;;;;;16.83;11.23;;;19.90;99.90;;;;;;5074475;28;20037;-69
2022/07/20 04:46:11;;;;;;;15.38;10.35;;;19.80;99.90;;;;;;5061766;28;20115;-69
2022/07/20 04:48:36;;;;;;;18.67;10.40;;;19.80;99.90;;;;;;5064747;28;20356;-69
2022/07/20 04:51:02;;;;;;;15.13;9.50;;;19.80;99.90;;;;;;5069675;28;20032;-68
2022/07/20 04:53:28;;;;;;;13.82;9.50;;;19.80;99.90;;;;;;5063090;28;20036;-68
2022/07/20 04:55:53;;;;;;;18.60;10.48;;;19.80;99.90;;;;;;5073034;28;20048;-68
2022/07/20 04:58:19;;;;;;;17.92;10.57;;;19.90;99.90;;;;;;5070796;28;20040;-69
2022/07/20 05:00:45;;;;;;;20.15;10.95;;;19.90;99.90;;;;;;5057080;28;20495;-69
2022/07/20 05:03:10;;;;;;;20.98;12.18;;;20.00;99.90;;;;;;5052286;28;20122;-69
2022/07/20 05:05:36;;;;;;;21.98;11.48;;;20.00;99.90;;;;;;5059513;28;20399;-68
2022/07/20 05:08:02;;;;;;;18.25;10.30;;;20.00;99.90;;;;;;5050085;28;20115;-69
2022/07/20 05:10:28;;;;;;;14.27;10.20;;;20.10;99.90;;;;;;5058408;28;20051;-69
2022/07/20 05:12:54;;;;;;;20.75;10.68;;;20.20;99.90;;;;;;5062615;28;20036;-69
2022/07/20 05:15:19;;;;;;;17.13;10.02;;;20.20;99.90;;;;;;5065800;28;20036;-68
2022/07/20 05:17:45;;;;;;;14.65;10.07;;;20.30;99.90;;;;;;5069320;28;20035;-69
2022/07/20 05:20:11;;;;;;;16.38;10.10;;;20.50;99.90;;;;;;5066265;28;20509;-69
2022/07/20 05:22:36;;;;;;;13.43;9.73;;;20.50;99.90;;;;;;5062584;28;20079;-69
2022/07/20 05:25:02;;;;;;;13.70;9.35;;;20.60;99.90;;;;;;5057717;28;20085;-69
2022/07/20 05:27:28;;;;;;;15.48;9.75;;;20.70;99.90;;;;;;5066142;28;20535;-68
2022/07/20 05:29:53;;;;;;;15.63;9.38;;;20.80;99.90;;;;;;5065348;28;20424;-69
2022/07/20 05:32:19;;;;;;;12.77;9.30;;;20.90;99.90;;;;;;5053610;28;20037;-68
2022/07/20 05:38:25;;;;;;;15.13;10.55;;;21.10;99.90;;;;;;5073279;28;20105;-68
2022/07/20 05:40:51;;;;;;;18.17;10.43;;;21.20;99.90;;;;;;5072468;28;20083;-68
2022/07/20 05:43:17;;;;;;;17.10;11.25;;;21.30;99.90;;;;;;5072326;28;20043;-68
2022/07/20 05:45:43;;;;;;;16.00;10.25;;;21.40;99.90;;;;;;5072264;28;20043;-68
2022/07/20 05:48:11;;;;;;;18.95;11.00;;;21.50;99.90;;;;;;5072113;28;20080;-69
2022/07/20 05:50:37;;;;;;;17.17;11.10;;;21.60;99.90;;;;;;5072065;28;20095;-69
2022/07/20 05:53:03;;;;;;;15.57;9.65;;;21.70;99.90;;;;;;5072206;28;20491;-68
2022/07/20 05:55:29;;;;;;;18.13;11.35;;;21.80;99.90;;;;;;5072252;28;20043;-68
2022/07/20 05:57:54;;;;;;;19.25;10.52;;;21.90;99.90;;;;;;5072246;28;20376;-69
2022/07/20 06:00:20;;;;;;;20.05;11.15;;;22.00;99.90;;;;;;5072076;28;20045;-68
2022/07/20 06:06:27;;;;;;;16.58;11.20;;;22.20;99.90;;;;;;5073402;28;20036;-68
2022/07/20 06:08:52;;;;;;;18.98;10.77;;;22.30;99.90;;;;;;5072017;28;20044;-69
2022/07/20 06:11:18;;;;;;;18.83;11.35;;;22.40;99.90;;;;;;5073452;28;20067;-69
2022/07/20 06:13:43;;;;;;;16.33;11.80;;;22.60;99.90;;;;;;5072306;28;20032;-68
2022/07/20 06:16:09;;;;;;;20.98;11.88;;;22.60;99.90;;;;;;5075893;28;20047;-68
2022/07/20 06:18:34;;;;;;;16.95;11.43;;;22.70;99.90;;;;;;5077169;28;20047;-68
2022/07/20 06:24:41;;;;;;;18.45;12.43;;;22.90;99.90;;;;;;5057172;28;20071;-68
2022/07/20 06:27:06;;;;;;;21.25;12.13;;;23.00;99.90;;;;;;5055826;28;20048;-67
2022/07/20 06:29:32;;;;;;;25.40;13.10;;;23.10;99.90;;;;;;5055808;28;20041;-67
2022/07/20 06:31:58;;;;;;;21.05;12.93;;;23.20;99.90;;;;;;5055751;28;20036;-66
2022/07/20 06:34:23;;;;;;;22.45;13.82;;;23.20;99.90;;;;;;5055724;28;20525;-67
2022/07/20 06:40:30;;;;;;;28.75;15.05;;;23.50;99.90;;;;;;5056792;28;20130;-68
2022/07/20 06:42:55;;;;;;;24.27;15.55;;;23.70;99.90;;;;;;5055494;28;20037;-67
2022/07/20 06:45:21;;;;;;;27.55;16.73;;;23.80;99.90;;;;;;5055506;28;20079;-67
2022/07/20 06:47:47;;;;;;;31.35;17.33;;;23.90;99.90;;;;;;5055327;28;20495;-68
2022/07/20 06:50:12;;;;;;;30.80;17.08;;;24.10;99.90;;;;;;5055254;28;20045;-69
2022/07/20 06:52:38;;;;;;;34.45;19.67;;;24.10;99.90;;;;;;5059408;28;20538;-67
2022/07/20 06:55:05;;;;;;;37.15;20.48;;;24.30;99.90;;;;;;5074855;28;20040;-66
2022/07/20 06:57:30;;;;;;;33.42;18.88;;;24.30;99.30;;;;;;5074765;28;20479;-68
2022/07/20 06:59:56;;;;;;;45.17;24.52;;;24.50;99.90;;;;;;5074016;28;20043;-69
2022/07/20 07:02:22;;;;;;;41.47;24.60;;;24.60;99.90;;;;;;5073396;28;20044;-66
2022/07/20 07:04:48;;;;;;;48.78;25.25;;;24.70;99.90;;;;;;5052727;28;20078;-70
2022/07/20 07:07:13;;;;;;;45.60;25.08;;;24.80;99.90;;;;;;5053060;28;20073;-66
2022/07/20 07:09:39;;;;;;;47.90;26.25;;;24.90;99.90;;;;;;5054529;28;20496;-66
2022/07/20 07:12:05;;;;;;;43.88;25.35;;;24.90;99.90;;;;;;5053511;28;20067;-68
2022/07/20 07:14:30;;;;;;;48.47;26.35;;;25.00;99.90;;;;;;5070722;28;20123;-68
2022/07/20 07:16:56;;;;;;;50.33;26.80;;;25.10;99.90;;;;;;5061791;28;20052;-67
2022/07/20 07:19:22;;;;;;;49.47;28.27;;;25.20;99.90;;;;;;5072623;28;20294;-67
2022/07/20 07:21:48;;;;;;;51.53;28.98;;;25.10;99.90;;;;;;5071741;28;20101;-67
2022/07/20 07:24:13;;;;;;;57.10;30.05;;;25.20;99.90;;;;;;5071311;28;20071;-67
2022/07/20 07:26:39;;;;;;;52.80;30.98;;;25.10;99.90;;;;;;5060683;28;20040;-69
2022/07/20 07:29:04;;;;;;;54.45;29.35;;;25.00;99.90;;;;;;5052804;28;20463;-69
2022/07/20 07:31:30;;;;;;;57.95;30.58;;;25.00;99.90;;;;;;5071834;28;20044;-70
2022/07/20 07:33:56;;;;;;;54.50;29.25;;;24.90;99.90;;;;;;5072386;28;20368;-67
2022/07/20 07:36:22;;;;;;;50.75;29.05;;;24.90;99.90;;;;;;5070361;28;20047;-66
2022/07/20 07:38:47;;;;;;;54.17;28.27;;;25.00;99.90;;;;;;5071531;28;20372;-67
2022/07/20 07:41:13;;;;;;;53.55;30.83;;;25.10;99.90;;;;;;5069128;28;20041;-66
2022/07/20 07:43:39;;;;;;;66.05;35.20;;;25.20;99.90;;;;;;5067891;28;20112;-66
2022/07/20 07:46:05;;;;;;;63.72;38.22;;;25.30;99.90;;;;;;5076738;28;20120;-66
2022/07/20 07:48:30;;;;;;;69.03;38.72;;;25.30;99.90;;;;;;5072039;28;20040;-68
2022/07/20 07:50:56;;;;;;;65.38;39.33;;;25.30;99.90;;;;;;5067006;28;20123;-67
2022/07/20 07:53:22;;;;;;;74.57;40.72;;;25.20;99.90;;;;;;5051999;28;20037;-68
2022/07/20 07:55:48;;;;;;;64.47;39.08;;;25.20;99.90;;;;;;5064993;28;20398;-68
2022/07/20 07:58:13;;;;;;;80.85;41.25;;;25.30;99.90;;;;;;5071496;28;20060;-68
2022/07/20 08:00:40;;;;;;;78.00;41.33;;;25.40;99.90;;;;;;5074651;28;20076;-66
2022/07/20 08:03:07;;;;;;;76.32;42.83;;;25.40;99.90;;;;;;5068028;28;20403;-65
2022/07/20 08:05:33;;;;;;;91.82;44.42;;;25.40;99.90;;;;;;5055346;28;20480;-64
2022/07/20 08:08:09;;;;;;;84.18;44.65;;;25.50;99.90;;;;;;5052264;28;20479;-69
2022/07/20 08:10:35;;;;;;;87.10;44.78;;;25.60;99.90;;;;;;5082413;28;20568;-65
2022/07/20 08:13:01;;;;;;;82.60;46.72;;;25.70;99.90;;;;;;5068978;28;20123;-68
2022/07/20 08:15:26;;;;;;;79.63;44.40;;;25.90;99.90;;;;;;5064202;28;20032;-66
2022/07/20 08:17:52;;;;;;;85.55;45.72;;;25.90;99.90;;;;;;5059498;28;20486;-64
2022/07/20 08:20:22;;;;;;;78.68;46.22;;;25.90;99.90;;;;;;5051923;28;20442;-66
2022/07/20 08:22:48;;;;;;;81.97;47.03;;;25.90;99.90;;;;;;5069678;28;20032;-68
2022/07/20 08:25:14;;;;;;;90.40;47.65;;;26.10;99.90;;;;;;5066753;28;20475;-66
2022/07/20 08:27:40;;;;;;;88.53;48.85;;;26.20;99.90;;;;;;5051419;28;20048;-66
2022/07/20 08:30:06;;;;;;;90.28;48.97;;;26.30;99.90;;;;;;5051594;28;20040;-65
2022/07/20 08:32:32;;;;;;;100.55;51.70;;;26.30;99.90;;;;;;5051054;28;20399;-68
2022/07/20 08:34:57;;;;;;;96.90;50.92;;;26.30;99.90;;;;;;5057697;28;20032;-65
2022/07/20 08:37:23;;;;;;;89.28;51.90;;;26.30;99.90;;;;;;5069598;28;20043;-66
2022/07/20 08:39:49;;;;;;;96.68;52.42;;;26.30;99.90;;;;;;5071000;28;20523;-68
2022/07/20 08:42:14;;;;;;;91.03;52.90;;;26.30;99.90;;;;;;5069662;28;20044;-67
2022/07/20 08:44:41;;;;;;;100.97;54.20;;;26.30;99.90;;;;;;5055360;28;20059;-67
2022/07/20 08:47:11;;;;;;;87.88;51.85;;;26.40;99.90;;;;;;5051715;28;20044;-66
2022/07/20 08:49:38;;;;;;;92.18;52.63;;;26.40;99.90;;;;;;5060013;28;20029;-66
2022/07/20 08:52:04;;;;;;;96.07;55.05;;;26.50;99.90;;;;;;5061952;28;20128;-66
2022/07/20 08:54:31;;;;;;;105.38;54.88;;;26.50;99.90;;;;;;5072734;28;20037;-66
2022/07/20 08:56:57;;;;;;;93.43;52.17;;;26.50;99.90;;;;;;5067352;28;20049;-67
2022/07/20 08:59:22;;;;;;;83.80;50.45;;;26.60;99.90;;;;;;5070265;28;20090;-66
2022/07/20 09:01:59;;;;;;;84.28;49.33;;;26.50;99.90;;;;;;5072262;28;20127;-64
2022/07/20 09:04:25;;;;;;;84.10;47.58;;;26.50;99.90;;;;;;5068291;28;20037;-65
2022/07/20 09:06:51;;;;;;;77.50;46.20;;;26.60;99.90;;;;;;5066531;28;20051;-67
2022/07/20 09:09:17;;;;;;;80.18;44.28;;;26.50;99.50;;;;;;5060529;28;20115;-67
2022/07/20 09:11:44;;;;;;;79.95;45.03;;;26.40;99.90;;;;;;5068835;28;20387;-66
2022/07/20 09:14:09;;;;;;;72.40;44.20;;;26.40;99.90;;;;;;5066659;28;20066;-69
2022/07/20 09:16:43;;;;;;;69.90;45.67;;;26.30;99.40;;;;;;5071557;28;20037;-68
2022/07/20 09:19:08;;;;;;;75.65;47.08;;;26.30;99.00;;;;;;5067879;28;20057;-67
2022/07/20 09:21:34;;;;;;;78.38;44.50;;;26.20;99.90;;;;;;5052041;28;20051;-65
2022/07/20 09:24:06;;;;;;;78.30;45.42;;;26.30;99.90;;;;;;5083670;28;20040;-65
2022/07/20 09:26:32;;;;;;;74.40;44.97;;;26.40;99.90;;;;;;5086933;28;20047;-66
2022/07/20 09:29:00;;;;;;;68.72;44.40;;;26.40;99.90;;;;;;5050051;28;20051;-66
2022/07/20 09:31:34;;;;;;;71.72;42.92;;;26.50;99.90;;;;;;5053451;28;20461;-67
2022/07/20 09:34:06;;;;;;;71.75;42.85;;;26.50;99.90;;;;;;5077170;28;20051;-65
2022/07/20 09:36:35;;;;;;;72.32;41.20;;;26.60;99.90;;;;;;5071196;28;20051;-66
2022/07/20 09:39:12;;;;;;;66.10;36.97;;;26.60;99.90;;;;;;5086592;28;20101;-65
2022/07/20 09:41:40;;;;;;;65.72;37.60;;;26.60;99.60;;;;;;5078236;28;20044;-65
2022/07/20 09:44:07;;;;;;;57.70;35.28;;;26.60;99.70;;;;;;5053172;28;20086;-66
2022/07/20 09:46:35;;;;;;;59.63;34.33;;;26.70;99.90;;;;;;5062502;28;20032;-65
2022/07/20 09:49:09;;;;;;;50.88;32.33;;;26.70;99.10;;;;;;5071195;28;20382;-64
2022/07/20 09:51:36;;;;;;;58.35;32.10;;;26.80;99.50;;;;;;5071349;28;20052;-68
2022/07/20 09:54:05;;;;;;;54.47;31.45;;;26.80;99.00;;;;;;5070892;28;20525;-66
2022/07/20 09:56:33;;;;;;;58.30;30.77;;;26.90;98.90;;;;;;5080360;28;20043;-66
2022/07/20 09:59:04;;;;;;;45.60;28.35;;;26.90;99.50;;;;;;5083668;28;20071;-66
2022/07/20 10:01:36;;;;;;;49.57;26.57;;;27.00;97.80;;;;;;5071830;28;20054;-64
2022/07/20 10:04:05;;;;;;;58.47;28.67;;;26.90;98.00;;;;;;5069643;28;20599;-69
2022/07/20 10:06:31;;;;;;;46.03;27.33;;;26.90;97.80;;;;;;5052733;28;20043;-63
2022/07/20 10:08:57;;;;;;;43.15;26.98;;;26.90;97.30;;;;;;5061770;28;20029;-65
2022/07/20 10:11:25;;;;;;;48.47;27.23;;;26.90;96.90;;;;;;5057905;28;20033;-66
2022/07/20 10:13:53;;;;;;;46.92;27.30;;;27.00;98.50;;;;;;5049753;28;20060;-65
2022/07/20 10:16:18;;;;;;;49.13;26.10;;;27.20;97.40;;;;;;5049997;28;20080;-67
2022/07/20 10:18:46;;;;;;;45.28;26.60;;;27.30;98.50;;;;;;5049925;28;20084;-67
2022/07/20 10:21:30;;;;;;;43.75;27.08;;;27.30;97.40;;;;;;5066115;28;20055;-65
2022/07/20 10:24:22;;;;;;;47.08;27.35;;;27.30;97.40;;;;;;5049033;28;20037;-68
2022/07/20 10:26:51;;;;;;;47.83;26.95;;;27.30;97.30;;;;;;5059545;28;20403;-66
2022/07/20 10:29:36;;;;;;;49.40;27.77;;;27.20;96.80;;;;;;5049533;28;20048;-66
2022/07/20 10:32:22;;;;;;;44.50;28.63;;;27.30;96.70;;;;;;5049107;28;20172;-66
2022/07/20 10:34:56;;;;;;;47.65;26.75;;;27.30;96.50;;;;;;5064130;28;20391;-67
2022/07/20 10:37:28;;;;;;;46.35;27.25;;;27.40;97.80;;;;;;5060170;28;20368;-65
2022/07/20 10:39:57;;;;;;;43.53;26.27;;;27.50;97.10;;;;;;5066982;28;20036;-66
2022/07/20 10:42:34;;;;;;;44.65;26.55;;;27.50;97.60;;;;;;5055501;28;20068;-65
2022/07/20 10:45:20;;;;;;;47.30;27.30;;;27.50;97.00;;;;;;5069169;28;20067;-66
2022/07/20 10:47:47;;;;;;;42.55;25.52;;;27.50;95.90;;;;;;5069958;28;20088;-67
2022/07/20 10:50:39;;;;;;;40.42;25.35;;;27.50;94.70;;;;;;5068212;28;20054;-66
2022/07/20 10:53:11;;;;;;;41.90;25.73;;;27.40;95.70;;;;;;5074925;28;20437;-68
2022/07/20 10:55:37;;;;;;;40.13;25.40;;;27.60;96.10;;;;;;5072509;28;20045;-68
2022/07/20 10:58:06;;;;;;;38.17;22.67;;;27.60;95.70;;;;;;5066360;28;20102;-65
2022/07/20 11:00:42;;;;;;;38.40;22.67;;;27.80;95.10;;;;;;5070133;28;20045;-64
2022/07/20 11:03:17;;;;;;;35.70;21.88;;;27.70;94.40;;;;;;5068442;28;20041;-67
2022/07/20 11:05:44;;;;;;;36.65;22.85;;;27.60;92.90;;;;;;5053791;28;20459;-67
2022/07/20 11:08:10;;;;;;;38.90;21.20;;;27.50;95.10;;;;;;5052285;28;20094;-64
2022/07/20 11:10:37;;;;;;;34.33;21.52;;;27.70;95.40;;;;;;5053578;28;20064;-66
2022/07/20 11:13:08;;;;;;;32.67;20.35;;;27.70;93.20;;;;;;5054208;28;20051;-65
2022/07/20 11:15:46;;;;;;;36.67;20.52;;;27.90;93.90;;;;;;5055626;28;20065;-66
2022/07/20 11:18:18;;;;;;;33.40;20.23;;;27.90;92.80;;;;;;5052247;28;20057;-65
2022/07/20 11:20:48;;;;;;;30.50;20.50;;;27.80;93.00;;;;;;5068770;28;20041;-65
2022/07/20 11:23:14;;;;;;;28.80;19.55;;;27.60;91.70;;;;;;5072148;28;20041;-66
2022/07/20 11:25:54;;;;;;;30.90;20.92;;;27.70;92.50;;;;;;5070743;28;20041;-65
2022/07/20 11:28:29;;;;;;;31.65;19.95;;;27.60;92.80;;;;;;5051604;28;20522;-66
2022/07/20 11:30:56;;;;;;;31.52;19.80;;;27.40;91.60;;;;;;5057601;28;20057;-66
2022/07/20 11:33:48;;;;;;;31.90;20.60;;;27.20;92.20;;;;;;5067060;28;20037;-65
2022/07/20 11:36:20;;;;;;;29.80;19.98;;;27.40;93.70;;;;;;5069212;28;20044;-66
2022/07/20 11:38:50;;;;;;;;;;;27.60;93.40;;;;;;5059607;28;20074;-66
2022/07/20 11:41:18;;;;;;;35.28;21.67;;;27.80;93.30;;;;;;5052120;28;19921;-65
2022/07/20 11:43:44;;;;;;;34.65;21.98;;;27.90;92.30;;;;;;5072871;28;20055;-66
2022/07/20 11:46:13;;;;;;;35.38;22.35;;;28.10;92.30;;;;;;5067264;28;20076;-66
2022/07/20 11:48:39;;;;;;;34.35;23.52;;;27.90;92.20;;;;;;5071337;28;20426;-66
2022/07/20 11:51:06;;;;;;;33.78;22.65;;;28.00;93.10;;;;;;5072292;28;20041;-67
2022/07/20 11:53:34;;;;;;;38.10;22.90;;;28.10;93.50;;;;;;5071845;28;20123;-68
2022/07/20 11:56:04;;;;;;;38.42;23.98;;;28.20;91.70;;;;;;5072368;28;20136;-65
2022/07/20 11:58:36;;;;;;;38.28;23.00;;;28.10;92.30;;;;;;5060318;28;20040;-65
2022/07/20 12:01:07;;;;;;;40.88;24.83;;;28.10;92.70;;;;;;5067020;28;20072;-64
2022/07/20 12:03:39;;;;;;;40.13;25.10;;;28.20;91.20;;;;;;5052087;28;20047;-64
2022/07/20 12:06:10;;;;;;;39.30;25.75;;;28.20;91.00;;;;;;5051307;28;20134;-67
2022/07/20 12:08:36;;;;;;;33.70;23.52;;;28.30;91.50;;;;;;5052593;28;20044;-63
2022/07/20 12:11:03;;;;;;;39.92;24.45;;;28.20;87.60;;;;;;5067385;28;20090;-66
2022/07/20 12:13:29;;;;;;;34.72;23.95;;;28.30;90.20;;;;;;5072931;28;20032;-68
2022/07/20 12:15:55;;;;;;;31.48;22.02;;;28.30;89.70;;;;;;5070677;28;20048;-65
2022/07/20 12:18:51;;;;;;;29.35;20.67;;;28.20;88.40;;;;;;5056317;28;20506;-65
2022/07/20 12:21:18;;;;;;;26.90;18.63;;;28.20;90.30;;;;;;5050988;28;20048;-65
2022/07/20 12:23:46;;;;;;;31.88;17.65;;;28.20;89.10;;;;;;5049717;28;20041;-67
2022/07/20 12:26:35;;;;;;;28.33;17.83;;;28.10;84.90;;;;;;5049173;28;20037;-67
2022/07/20 12:29:19;;;;;;;30.70;17.92;;;27.90;87.50;;;;;;5051049;28;20510;-66
2022/07/20 12:32:04;;;;;;;23.15;15.57;;;27.90;89.50;;;;;;5051001;28;20060;-66
2022/07/20 12:34:31;;;;;;;21.70;14.82;;;28.10;89.50;;;;;;5064707;28;20399;-66
2022/07/20 12:36:58;;;;;;;19.42;13.85;;;28.10;87.70;;;;;;5070387;28;20040;-67
2022/07/20 12:39:41;;;;;;;16.48;13.10;;;28.20;87.90;;;;;;5059950;28;20396;-66
2022/07/20 12:42:23;;;;;;;23.63;12.73;;;28.20;85.80;;;;;;5050728;28;20032;-69
2022/07/20 12:44:58;;;;;;;23.23;13.75;;;28.10;84.60;;;;;;5053047;28;20120;-67
2022/07/20 12:47:24;;;;;;;20.58;13.13;;;28.10;85.90;;;;;;5069945;28;20036;-66
2022/07/20 12:49:49;;;;;;;25.40;13.43;;;28.20;86.20;;;;;;5061908;28;20592;-67
2022/07/20 12:52:15;;;;;;;21.50;12.60;;;28.10;86.60;;;;;;5050922;28;20055;-68